Time;durP1;ratioP1;P1;durP2;ratioP2;P2;SDS_P1;SDS_P2;PMS_P1;PMS_P2;Temp;Humidity;BMP_temperature;BMP_pressure;BME280_temperature;BME280_humidity;BME280_pressure;Samples;Min_cycle;Max_cycle;Signal;HPM_P1;HPM_P2
2022/04/04 00:01:04;;;;;;;4.50;4.10;;;2.20;99.90;;;;;;5031917;28;20234;-83
2022/04/04 00:03:34;;;;;;;3.58;3.28;;;2.10;99.90;;;;;;5032168;28;20306;-83
2022/04/04 00:06:03;;;;;;;4.20;3.90;;;2.10;99.90;;;;;;5032161;28;20207;-83
2022/04/04 00:08:33;;;;;;;4.00;3.70;;;2.10;99.90;;;;;;5032006;28;20298;-83
2022/04/04 00:11:02;;;;;;;3.80;3.50;;;2.00;99.90;;;;;;5032121;28;20293;-83
2022/04/04 00:13:30;;;;;;;5.78;3.63;;;2.00;99.90;;;;;;5031899;28;20297;-83
2022/04/04 00:15:58;;;;;;;4.32;4.00;;;2.00;99.90;;;;;;5032184;28;20226;-83
2022/04/04 00:18:27;;;;;;;4.40;4.00;;;1.90;99.90;;;;;;5032295;28;20276;-83
2022/04/04 00:20:57;;;;;;;4.20;3.90;;;1.90;99.90;;;;;;5031612;28;20206;-83
2022/04/04 00:23:25;;;;;;;3.80;3.50;;;1.90;99.90;;;;;;5031916;28;20290;-83
2022/04/04 00:25:54;;;;;;;4.85;4.45;;;1.90;99.90;;;;;;5031719;28;20229;-83
2022/04/04 00:28:22;;;;;;;4.88;4.40;;;1.90;99.90;;;;;;5032344;28;20206;-83
2022/04/04 00:30:51;;;;;;;5.68;4.25;;;1.90;99.90;;;;;;5031985;28;20210;-83
2022/04/04 00:33:19;;;;;;;4.60;4.13;;;1.80;99.90;;;;;;5031771;28;20240;-83
2022/04/04 00:35:48;;;;;;;5.00;4.50;;;1.90;99.90;;;;;;5032056;28;20210;-85
2022/04/04 00:38:18;;;;;;;4.03;3.53;;;1.80;99.90;;;;;;5032822;28;20290;-85
2022/04/04 00:40:47;;;;;;;4.70;4.30;;;1.80;99.90;;;;;;5035612;28;20234;-85
2022/04/04 00:43:15;;;;;;;4.28;3.95;;;1.80;99.90;;;;;;5035843;28;20290;-85
2022/04/04 00:45:47;;;;;;;4.40;4.00;;;1.80;99.90;;;;;;5035617;28;20209;-83
2022/04/04 00:48:16;;;;;;;4.17;3.80;;;1.80;99.90;;;;;;5035359;28;20230;-83
2022/04/04 00:50:44;;;;;;;5.03;4.53;;;1.70;99.90;;;;;;5035218;28;20210;-83
2022/04/04 00:53:13;;;;;;;4.82;3.90;;;1.70;99.90;;;;;;5035285;28;20316;-83
2022/04/04 00:55:44;;;;;;;5.15;4.65;;;1.70;99.90;;;;;;5035291;28;20266;-85
2022/04/04 00:58:15;;;;;;;4.10;3.80;;;1.60;99.90;;;;;;5035862;28;20306;-85
2022/04/04 01:00:46;;;;;;;4.32;3.92;;;1.60;99.90;;;;;;5035347;28;20229;-85
2022/04/04 01:03:14;;;;;;;3.83;3.35;;;1.60;99.90;;;;;;5035297;28;20230;-85
2022/04/04 01:05:44;;;;;;;5.07;4.63;;;1.60;99.90;;;;;;5035492;28;20206;-85
2022/04/04 01:08:13;;;;;;;4.75;4.30;;;1.60;99.90;;;;;;5035616;28;20253;-85
2022/04/04 01:10:44;;;;;;;4.82;4.43;;;1.60;99.90;;;;;;5035136;28;20210;-85
2022/04/04 01:13:13;;;;;;;5.23;4.27;;;1.60;99.90;;;;;;5034832;28;20245;-85
2022/04/04 01:15:42;;;;;;;4.60;4.20;;;1.60;99.90;;;;;;5034978;28;20202;-85
2022/04/04 01:18:11;;;;;;;8.70;4.82;;;1.60;99.90;;;;;;5034982;28;20210;-84
2022/04/04 01:20:40;;;;;;;4.20;3.90;;;1.60;99.90;;;;;;5034916;28;20293;-85
2022/04/04 01:23:08;;;;;;;4.70;4.30;;;1.60;99.90;;;;;;5035157;28;20261;-85
2022/04/04 01:25:38;;;;;;;5.68;5.18;;;1.60;99.90;;;;;;5035153;28;20313;-85
2022/04/04 01:28:07;;;;;;;4.38;4.07;;;1.60;99.90;;;;;;5034717;28;20229;-85
2022/04/04 01:30:36;;;;;;;6.68;4.28;;;1.60;99.90;;;;;;5034437;28;20206;-85
2022/04/04 01:33:05;;;;;;;4.83;4.43;;;1.60;99.90;;;;;;5035124;28;20246;-85
2022/04/04 01:35:38;;;;;;;8.60;5.07;;;1.60;99.90;;;;;;5035173;28;20305;-85
2022/04/04 01:38:06;;;;;;;5.50;5.07;;;1.60;99.90;;;;;;5034834;28;20218;-85
2022/04/04 01:40:34;;;;;;;4.00;3.70;;;1.60;99.90;;;;;;5034693;28;20242;-85
2022/04/04 01:43:04;;;;;;;5.30;4.80;;;1.60;99.90;;;;;;5034283;28;20234;-85
2022/04/04 01:48:19;;;;;;;4.90;4.50;;;1.50;99.90;;;;;;5034956;28;20260;-85
2022/04/04 01:50:47;;;;;;;6.00;5.35;;;1.50;99.90;;;;;;5034012;28;20210;-85
2022/04/04 01:53:27;;;;;;;5.40;4.97;;;1.50;99.90;;;;;;5034191;28;20300;-85
2022/04/04 01:55:58;;;;;;;5.63;5.13;;;1.50;99.90;;;;;;5034571;28;20218;-85
2022/04/04 01:58:28;;;;;;;6.80;6.10;;;1.50;99.90;;;;;;5034687;28;20195;-85
2022/04/04 02:00:57;;;;;;;5.25;4.85;;;1.50;99.90;;;;;;5034277;28;20227;-85
2022/04/04 02:03:25;;;;;;;5.07;4.68;;;1.50;99.90;;;;;;5034388;28;20242;-85
2022/04/04 02:05:54;;;;;;;5.30;4.80;;;1.50;99.90;;;;;;5033713;28;20696;-84
2022/04/04 02:08:23;;;;;;;5.30;4.80;;;1.40;99.90;;;;;;5033978;28;20271;-84
2022/04/04 02:10:51;;;;;;;7.03;5.10;;;1.40;99.90;;;;;;5034010;28;20237;-84
2022/04/04 02:13:20;;;;;;;5.70;5.20;;;1.40;99.90;;;;;;5034110;28;20257;-84
2022/04/04 02:15:50;;;;;;;5.67;5.10;;;1.40;99.90;;;;;;5034209;28;20212;-84
2022/04/04 02:18:19;;;;;;;5.57;5.07;;;1.30;99.90;;;;;;5033976;28;20285;-84
2022/04/04 02:20:47;;;;;;;5.40;4.90;;;1.40;99.90;;;;;;5033914;28;20298;-84
2022/04/04 02:23:18;;;;;;;5.27;4.83;;;1.30;99.90;;;;;;5033987;28;20226;-84
2022/04/04 02:25:47;;;;;;;5.67;5.23;;;1.30;99.90;;;;;;5034003;28;20210;-84
2022/04/04 02:28:17;;;;;;;6.63;4.83;;;1.30;99.90;;;;;;5033964;28;20256;-84
2022/04/04 02:30:46;;;;;;;5.57;4.80;;;1.30;99.90;;;;;;5033370;28;20218;-84
2022/04/04 02:33:17;;;;;;;6.40;5.90;;;1.30;99.90;;;;;;5033435;28;20227;-84
2022/04/04 02:35:47;;;;;;;5.57;5.05;;;1.30;99.90;;;;;;5033817;28;20210;-84
2022/04/04 02:38:16;;;;;;;5.77;5.17;;;1.30;99.90;;;;;;5033635;28;20214;-84
2022/04/04 02:40:44;;;;;;;6.03;5.43;;;1.20;99.90;;;;;;5033431;28;20266;-84
2022/04/04 02:43:13;;;;;;;5.87;5.33;;;1.20;99.90;;;;;;5033629;28;20226;-84
2022/04/04 02:45:41;;;;;;;6.03;5.50;;;1.20;99.90;;;;;;5032949;28;20262;-83
2022/04/04 02:48:10;;;;;;;5.90;4.75;;;1.20;99.90;;;;;;5033285;28;20246;-84
2022/04/04 02:50:40;;;;;;;4.97;4.57;;;1.20;99.90;;;;;;5033029;28;20297;-84
2022/04/04 02:53:08;;;;;;;6.07;5.20;;;1.10;99.90;;;;;;5033369;28;20301;-84
2022/04/04 02:58:22;;;;;;;5.30;4.90;;;1.10;99.90;;;;;;5032786;28;20274;-83
2022/04/04 03:00:50;;;;;;;8.53;6.20;;;1.10;99.90;;;;;;5032587;28;20210;-84
2022/04/04 03:03:19;;;;;;;6.00;5.50;;;1.10;99.90;;;;;;5033008;28;20226;-84
2022/04/04 03:05:50;;;;;;;5.27;4.77;;;1.00;99.90;;;;;;5033481;28;20230;-84
2022/04/04 03:08:29;;;;;;;5.40;4.90;;;1.10;99.90;;;;;;5033007;28;20230;-84
2022/04/04 03:10:58;;;;;;;5.17;4.77;;;1.00;99.90;;;;;;5032814;28;20214;-84
2022/04/04 03:13:26;;;;;;;7.50;5.97;;;1.00;99.90;;;;;;5032472;28;20226;-84
2022/04/04 03:15:54;;;;;;;4.70;4.30;;;1.00;99.90;;;;;;5032959;28;20203;-84
2022/04/04 03:18:23;;;;;;;5.90;5.40;;;1.00;99.90;;;;;;5032757;28;20238;-84
2022/04/04 03:20:54;;;;;;;5.50;5.07;;;0.90;99.90;;;;;;5032437;28;20229;-84
2022/04/04 03:23:24;;;;;;;5.83;5.23;;;1.00;99.90;;;;;;5032308;28;20237;-84
2022/04/04 03:25:52;;;;;;;7.87;4.73;;;0.90;99.90;;;;;;5032531;28;20206;-83
2022/04/04 03:28:21;;;;;;;5.83;5.27;;;0.90;99.90;;;;;;5032796;28;20282;-83
2022/04/04 03:30:49;;;;;;;5.63;5.13;;;0.90;99.90;;;;;;5032648;28;20297;-84
2022/04/04 03:33:18;;;;;;;5.57;5.07;;;0.90;99.90;;;;;;5032678;28;20253;-84
2022/04/04 03:35:47;;;;;;;4.40;4.10;;;0.90;99.90;;;;;;5032381;28;20216;-84
2022/04/04 03:38:17;;;;;;;4.30;3.93;;;0.90;99.90;;;;;;5032450;28;20206;-83
2022/04/04 03:40:46;;;;;;;6.03;4.50;;;0.90;99.90;;;;;;5032521;28;20297;-84
2022/04/04 03:43:14;;;;;;;6.10;5.17;;;0.90;99.90;;;;;;5032307;28;20230;-84
2022/04/04 03:45:43;;;;;;;5.50;5.00;;;0.90;99.90;;;;;;5032547;28;20215;-84
2022/04/04 03:48:12;;;;;;;5.30;4.83;;;0.80;99.90;;;;;;5032534;28;20209;-84
2022/04/04 03:50:43;;;;;;;4.90;4.50;;;0.80;99.90;;;;;;5032000;28;20206;-83
2022/04/04 03:53:11;;;;;;;4.73;4.33;;;0.80;99.90;;;;;;5032189;28;20244;-83
2022/04/04 03:55:43;;;;;;;7.40;6.03;;;0.80;99.90;;;;;;5032432;28;20281;-85
2022/04/04 03:58:12;;;;;;;4.57;4.17;;;0.80;99.90;;;;;;5032310;28;20218;-84
2022/04/04 04:00:41;;;;;;;4.87;4.47;;;0.80;99.90;;;;;;5032175;28;20245;-83
2022/04/04 04:03:10;;;;;;;5.43;4.90;;;0.70;99.90;;;;;;5032078;28;20281;-83
2022/04/04 04:05:38;;;;;;;4.90;4.50;;;0.80;99.90;;;;;;5032121;28;20285;-85
2022/04/04 04:08:08;;;;;;;4.40;4.10;;;0.70;99.90;;;;;;5032324;28;20202;-85
2022/04/04 04:10:36;;;;;;;9.33;4.53;;;0.70;99.90;;;;;;5032527;28;20293;-85
2022/04/04 04:13:06;;;;;;;4.77;4.37;;;0.70;99.90;;;;;;5033133;28;20317;-85
2022/04/04 04:15:35;;;;;;;7.50;5.30;;;0.70;99.90;;;;;;5036007;28;20313;-85
2022/04/04 04:18:03;;;;;;;7.37;4.20;;;0.70;99.90;;;;;;5035899;28;20289;-85
2022/04/04 04:20:33;;;;;;;4.60;4.20;;;0.70;99.90;;;;;;5035971;28;20286;-85
2022/04/04 04:23:04;;;;;;;4.90;4.50;;;0.70;99.90;;;;;;5036278;28;20264;-85
2022/04/04 04:25:35;;;;;;;4.30;4.00;;;0.70;99.90;;;;;;5036002;28;20226;-85
2022/04/04 04:28:07;;;;;;;5.40;4.80;;;0.70;99.90;;;;;;5035953;28;20225;-85
2022/04/04 04:30:36;;;;;;;4.70;4.30;;;0.70;99.90;;;;;;5035746;28;20202;-85
2022/04/04 04:33:04;;;;;;;5.27;4.87;;;0.70;99.90;;;;;;5035991;28;20276;-85
2022/04/04 04:35:33;;;;;;;4.80;4.40;;;0.70;99.90;;;;;;5035638;28;20289;-85
2022/04/04 04:38:02;;;;;;;5.37;4.87;;;0.70;99.90;;;;;;5035864;28;20293;-85
2022/04/04 04:40:31;;;;;;;5.33;4.93;;;0.70;99.90;;;;;;5035619;28;20230;-85
2022/04/04 04:42:59;;;;;;;5.10;4.63;;;0.70;99.90;;;;;;5035493;28;20235;-85
2022/04/04 04:45:41;;;;;;;5.40;4.63;;;0.70;99.90;;;;;;5035814;28;20297;-85
2022/04/04 04:48:10;;;;;;;5.27;4.60;;;0.80;99.90;;;;;;5035808;28;20206;-85
2022/04/04 04:50:49;;;;;;;5.30;4.80;;;0.80;99.90;;;;;;5035982;28;20225;-85
2022/04/04 04:53:18;;;;;;;5.03;4.63;;;0.80;99.90;;;;;;5035546;28;20269;-85
2022/04/04 04:55:47;;;;;;;4.80;4.40;;;0.70;99.90;;;;;;5034925;28;20223;-85
2022/04/04 04:58:16;;;;;;;5.47;4.27;;;0.80;99.90;;;;;;5035589;28;20298;-85
2022/04/04 05:00:46;;;;;;;4.57;4.17;;;0.80;99.90;;;;;;5035665;28;20201;-85
2022/04/04 05:03:26;;;;;;;4.00;3.70;;;0.80;99.90;;;;;;5035677;28;20226;-85
2022/04/04 05:05:55;;;;;;;5.03;4.60;;;0.80;99.90;;;;;;5034707;28;20203;-85
2022/04/04 05:08:24;;;;;;;4.93;4.43;;;0.80;99.90;;;;;;5035055;28;20237;-85
2022/04/04 05:10:53;;;;;;;6.53;5.10;;;0.90;99.90;;;;;;5035149;28;20253;-85
2022/04/04 05:13:22;;;;;;;5.37;4.83;;;0.90;99.90;;;;;;5034769;28;20258;-85
2022/04/04 05:15:54;;;;;;;5.57;5.07;;;0.90;99.90;;;;;;5035222;28;20232;-85
2022/04/04 05:18:31;;;;;;;5.00;4.60;;;1.00;99.90;;;;;;5035306;28;20202;-85
2022/04/04 05:21:03;;;;;;;5.13;4.30;;;1.00;99.90;;;;;;5034274;28;20230;-85
2022/04/04 05:23:31;;;;;;;4.70;4.30;;;1.00;99.90;;;;;;5034182;28;20257;-85
2022/04/04 05:26:00;;;;;;;5.13;4.70;;;1.00;99.90;;;;;;5034826;28;20206;-85
2022/04/04 05:28:29;;;;;;;6.05;4.80;;;1.00;99.90;;;;;;5035326;28;20202;-85
2022/04/04 05:31:00;;;;;;;5.07;4.63;;;1.00;99.90;;;;;;5035181;28;20245;-83
2022/04/04 05:33:28;;;;;;;4.87;4.40;;;1.10;99.90;;;;;;5034917;28;20238;-84
2022/04/04 05:35:57;;;;;;;5.03;4.53;;;1.20;99.90;;;;;;5034350;28;20222;-85
2022/04/04 05:38:25;;;;;;;5.53;4.90;;;1.20;99.90;;;;;;5034672;28;20234;-85
2022/04/04 05:40:54;;;;;;;5.43;4.93;;;1.20;99.90;;;;;;5034169;28;20210;-85
2022/04/04 05:43:22;;;;;;;5.25;4.75;;;1.20;99.90;;;;;;5034481;28;20235;-85
2022/04/04 05:45:51;;;;;;;5.13;4.60;;;1.30;99.90;;;;;;5034456;28;20206;-85
2022/04/04 05:48:23;;;;;;;4.13;3.77;;;1.30;99.90;;;;;;5034717;28;20238;-85
2022/04/04 05:50:51;;;;;;;4.27;3.97;;;1.40;99.90;;;;;;5034091;28;20270;-85
2022/04/04 05:53:20;;;;;;;4.40;4.00;;;1.40;99.90;;;;;;5034644;28;20230;-85
2022/04/04 05:55:49;;;;;;;5.93;5.43;;;1.40;99.90;;;;;;5034530;28;20234;-85
2022/04/04 05:58:17;;;;;;;4.20;3.90;;;1.50;99.90;;;;;;5034596;28;20202;-85
2022/04/04 06:00:46;;;;;;;6.60;5.17;;;1.50;99.90;;;;;;5034155;28;20211;-85
2022/04/04 06:03:15;;;;;;;3.58;3.28;;;1.50;99.90;;;;;;5034033;28;20222;-85
2022/04/04 06:05:46;;;;;;;21.30;4.90;;;1.60;99.90;;;;;;5034061;28;20195;-85
2022/04/04 06:08:14;;;;;;;5.53;4.00;;;1.60;99.90;;;;;;5034484;28;20233;-85
2022/04/04 06:10:43;;;;;;;5.03;4.57;;;1.70;99.90;;;;;;5033853;28;20222;-85
2022/04/04 06:13:12;;;;;;;4.87;4.40;;;1.70;99.90;;;;;;5033809;28;20226;-85
2022/04/04 06:15:42;;;;;;;3.95;3.65;;;1.70;99.90;;;;;;5033917;28;20317;-85
2022/04/04 06:18:12;;;;;;;5.03;4.53;;;1.80;99.90;;;;;;5034108;28;20206;-85
2022/04/04 06:20:41;;;;;;;4.97;4.43;;;1.80;99.90;;;;;;5033893;28;20233;-85
2022/04/04 06:23:12;;;;;;;5.25;4.85;;;1.90;99.90;;;;;;5033943;28;20257;-85
2022/04/04 06:25:41;;;;;;;5.13;4.73;;;1.90;99.90;;;;;;5033600;28;20284;-85
2022/04/04 06:28:10;;;;;;;5.43;4.93;;;2.00;99.90;;;;;;5033870;28;20221;-85
2022/04/04 06:30:39;;;;;;;6.05;4.10;;;2.10;99.90;;;;;;5033585;28;20313;-85
2022/04/04 06:33:07;;;;;;;4.78;4.32;;;2.20;99.90;;;;;;5033441;28;20285;-85
2022/04/04 06:35:36;;;;;;;4.60;4.20;;;2.20;99.90;;;;;;5032873;28;20242;-83
2022/04/04 06:38:05;;;;;;;4.55;4.15;;;2.30;99.90;;;;;;5033642;28;20241;-83
2022/04/04 06:40:35;;;;;;;4.82;3.88;;;2.30;99.90;;;;;;5033431;28;20233;-83
2022/04/04 06:43:04;;;;;;;4.45;4.10;;;2.40;99.90;;;;;;5033636;28;20315;-83
2022/04/04 06:45:32;;;;;;;5.07;4.60;;;2.40;99.90;;;;;;5033607;28;20206;-83
2022/04/04 06:48:00;;;;;;;5.18;4.25;;;2.40;99.90;;;;;;5033559;28;20233;-83
2022/04/04 06:50:30;;;;;;;3.72;3.42;;;2.40;99.90;;;;;;5034849;28;20233;-82
2022/04/04 06:52:58;;;;;;;5.57;3.67;;;2.60;99.90;;;;;;5037048;28;20246;-86
2022/04/04 06:55:45;;;;;;;5.40;3.97;;;2.60;99.90;;;;;;5033249;28;20253;-88
2022/04/04 06:58:33;;;;;;;4.50;4.10;;;2.70;99.90;;;;;;5039191;28;20220;-87
2022/04/04 07:01:02;;;;;;;4.15;3.80;;;2.80;99.90;;;;;;5053780;28;20249;-84
2022/04/04 07:03:30;;;;;;;3.95;3.60;;;2.90;99.90;;;;;;5053786;28;20275;-81
2022/04/04 07:05:59;;;;;;;5.43;3.90;;;2.90;99.90;;;;;;5052677;28;20198;-84
2022/04/04 07:08:29;;;;;;;4.32;3.92;;;3.00;99.90;;;;;;5052823;28;20255;-84
2022/04/04 07:11:38;;;;;;;4.18;3.83;;;3.00;99.90;;;;;;5056420;28;20217;-85
2022/04/04 07:14:06;;;;;;;4.35;4.00;;;3.10;99.90;;;;;;5033950;28;20244;-85
2022/04/04 07:16:35;;;;;;;3.95;3.65;;;3.10;99.90;;;;;;5046156;28;20213;-85
2022/04/04 07:19:16;;;;;;;;;;;;;;;;;;;;;
2022/04/04 07:21:45;;;;;;;4.28;3.88;;;3.10;99.90;;;;;;5041275;28;20218;-85
2022/04/04 07:24:16;;;;;;;6.20;3.40;;;3.10;99.90;;;;;;5040648;28;20274;-84
2022/04/04 07:26:56;;;;;;;4.07;2.90;;;3.30;99.90;;;;;;5053041;28;20240;-86
2022/04/04 07:29:25;;;;;;;3.30;3.05;;;3.40;99.90;;;;;;5052513;28;20200;-85
2022/04/04 07:31:54;;;;;;;3.00;2.80;;;3.50;99.90;;;;;;5053097;28;20275;-86
2022/04/04 07:34:22;;;;;;;4.13;3.40;;;3.50;99.90;;;;;;5054700;28;20283;-84
2022/04/04 07:36:51;;;;;;;4.50;4.07;;;3.60;99.90;;;;;;5052052;28;20248;-85
2022/04/04 07:39:19;;;;;;;2.97;2.78;;;3.70;99.90;;;;;;5046928;28;20195;-86
2022/04/04 07:41:48;;;;;;;3.47;3.17;;;3.80;99.90;;;;;;5033376;28;20280;-85
2022/04/04 07:44:18;;;;;;;3.55;3.25;;;3.80;99.90;;;;;;5051105;28;20229;-85
2022/04/04 07:46:47;;;;;;;5.70;3.53;;;3.80;99.90;;;;;;5052771;28;20286;-85
2022/04/04 07:49:17;;;;;;;11.13;4.55;;;3.90;99.90;;;;;;5053188;28;20237;-85
2022/04/04 07:51:45;;;;;;;2.65;2.45;;;4.00;99.90;;;;;;5053130;28;20229;-85
2022/04/04 07:54:14;;;;;;;3.95;3.55;;;4.10;99.90;;;;;;5053043;28;20201;-85
2022/04/04 07:56:43;;;;;;;3.00;2.75;;;4.30;99.90;;;;;;5052534;28;20249;-83
2022/04/04 07:59:17;;;;;;;2.85;2.58;;;4.40;99.90;;;;;;5052628;28;20202;-86
2022/04/04 08:01:47;;;;;;;3.13;2.92;;;4.40;99.90;;;;;;5052523;28;20217;-84
2022/04/04 08:04:17;;;;;;;3.00;2.80;;;4.40;99.90;;;;;;5052680;28;20228;-84
2022/04/04 08:06:45;;;;;;;3.08;2.83;;;4.40;99.90;;;;;;5033421;28;20246;-84
2022/04/04 08:09:14;;;;;;;2.25;2.10;;;4.60;99.90;;;;;;5040131;28;20224;-86
2022/04/04 08:11:43;;;;;;;2.50;2.28;;;4.70;99.90;;;;;;5046097;28;20246;-87
2022/04/04 08:14:11;;;;;;;2.72;2.53;;;4.80;99.70;;;;;;5052452;28;20224;-86
2022/04/04 08:16:40;;;;;;;3.10;2.90;;;5.00;99.60;;;;;;5052930;28;20228;-87
2022/04/04 08:19:11;;;;;;;2.17;2.08;;;5.20;99.80;;;;;;5052749;28;20229;-87
2022/04/04 08:21:41;;;;;;;5.30;3.05;;;5.50;96.40;;;;;;5052918;28;20221;-86
2022/04/04 08:24:10;;;;;;;2.67;2.42;;;5.70;94.60;;;;;;5052885;28;20198;-87
2022/04/04 08:26:39;;;;;;;2.53;2.33;;;6.10;95.00;;;;;;5052451;28;20197;-87
2022/04/04 08:29:09;;;;;;;2.70;2.50;;;6.50;91.50;;;;;;5052347;28;20198;-87
2022/04/04 08:31:39;;;;;;;2.17;2.08;;;7.10;90.00;;;;;;5032316;28;20249;-87
2022/04/04 08:34:10;;;;;;;3.08;2.78;;;7.40;87.30;;;;;;5032954;28;20198;-87
2022/04/04 08:36:41;;;;;;;2.95;2.75;;;7.80;87.50;;;;;;5052426;28;20218;-88
2022/04/04 08:39:10;;;;;;;2.20;2.00;;;8.80;80.30;;;;;;5052664;28;20206;-88
2022/04/04 08:41:39;;;;;;;2.60;2.40;;;9.30;78.50;;;;;;5051605;28;20220;-88
2022/04/04 08:44:09;;;;;;;2.30;2.20;;;10.20;74.20;;;;;;5053921;28;20263;-87
2022/04/04 08:46:38;;;;;;;2.60;2.40;;;10.60;69.40;;;;;;5052702;28;20205;-87
2022/04/04 08:49:07;;;;;;;2.60;2.40;;;11.00;68.50;;;;;;5052838;28;20198;-87
2022/04/04 08:51:37;;;;;;;2.72;2.45;;;11.40;66.20;;;;;;5052073;28;20218;-88
2022/04/04 08:54:06;;;;;;;2.83;2.42;;;11.60;64.10;;;;;;5052898;28;20236;-87
2022/04/04 08:56:34;;;;;;;2.22;2.03;;;11.40;61.70;;;;;;5052020;28;20419;-87
2022/04/04 08:59:03;;;;;;;3.30;3.00;;;11.80;61.30;;;;;;5053025;28;20226;-88
2022/04/04 09:01:31;;;;;;;2.53;2.28;;;11.50;59.20;;;;;;5055782;28;20256;-88
2022/04/04 09:04:19;;;;;;;5.18;2.15;;;11.60;59.30;;;;;;5059736;28;20229;-86
2022/04/04 09:10:22;;;;;;;2.03;1.92;;;12.70;57.80;;;;;;5038813;28;20212;-89
2022/04/04 09:12:51;;;;;;;2.80;2.60;;;11.80;56.20;;;;;;5036382;28;20226;-90
2022/04/04 09:15:20;;;;;;;2.40;2.20;;;12.10;58.60;;;;;;5036403;28;20206;-84
2022/04/04 09:17:48;;;;;;;2.13;1.95;;;11.50;57.50;;;;;;5035821;28;20218;-88
2022/04/04 09:20:17;;;;;;;2.67;2.47;;;12.10;59.50;;;;;;5037779;28;20248;-88
2022/04/04 09:22:53;;;;;;;2.60;2.40;;;12.00;55.90;;;;;;5056098;28;20222;-87
2022/04/04 09:25:31;;;;;;;1.95;1.85;;;12.00;56.90;;;;;;5065250;28;20260;-88
2022/04/04 09:28:14;;;;;;;2.08;1.98;;;12.30;57.10;;;;;;5036230;28;20202;-88
2022/04/04 09:30:43;;;;;;;2.70;2.50;;;12.40;56.70;;;;;;5050402;28;20217;-87
2022/04/04 09:33:15;;;;;;;2.50;2.30;;;12.50;54.50;;;;;;5055169;28;20241;-88
2022/04/04 09:35:48;;;;;;;2.78;2.58;;;11.90;55.30;;;;;;5055190;28;20197;-88
2022/04/04 09:38:18;;;;;;;3.88;2.55;;;11.00;54.50;;;;;;5055395;28;20263;-88
2022/04/04 09:40:46;;;;;;;2.92;2.72;;;10.70;56.50;;;;;;5055025;28;20264;-88
2022/04/04 09:43:14;;;;;;;2.22;2.05;;;11.20;62.30;;;;;;5054135;28;20245;-86
2022/04/04 09:45:48;;;;;;;3.72;2.58;;;12.10;58.70;;;;;;5067112;28;20259;-87
2022/04/04 09:48:22;;;;;;;2.63;2.42;;;11.90;53.80;;;;;;5055673;28;20221;-88
2022/04/04 09:51:03;;;;;;;2.15;1.95;;;11.50;55.40;;;;;;5054726;28;20206;-88
2022/04/04 09:53:38;;;;;;;2.53;2.33;;;11.70;57.70;;;;;;5055524;28;20205;-88
2022/04/04 09:56:07;;;;;;;3.70;2.22;;;11.50;53.20;;;;;;5055529;28;20198;-88
2022/04/04 09:58:38;;;;;;;2.20;2.10;;;11.40;54.20;;;;;;5054952;28;20221;-88
2022/04/04 10:01:07;;;;;;;2.83;2.63;;;11.40;55.30;;;;;;5054948;28;20202;-88
2022/04/04 10:03:38;;;;;;;2.97;2.67;;;12.00;57.20;;;;;;5055201;28;20225;-88
2022/04/04 10:06:10;;;;;;;2.70;2.50;;;12.10;55.70;;;;;;5054353;28;20197;-88
2022/04/04 10:08:57;;;;;;;2.83;2.60;;;12.40;56.00;;;;;;5054152;28;20285;-90
2022/04/04 10:11:27;;;;;;;2.95;2.55;;;12.90;55.50;;;;;;5050128;28;20189;-88
2022/04/04 10:13:59;;;;;;;4.10;2.95;;;13.50;53.60;;;;;;5039918;28;20225;-88
2022/04/04 10:25:10;;;;;;;2.65;2.42;;;13.00;52.90;;;;;;5051154;28;20209;-93
2022/04/04 10:27:55;;;;;;;2.45;2.35;;;13.10;52.10;;;;;;5053771;28;20316;-92
2022/04/04 10:30:58;;;;;;;2.80;2.55;;;13.30;51.60;;;;;;5053837;28;20300;-93
2022/04/04 10:33:58;;;;;;;2.50;2.30;;;13.70;52.50;;;;;;5033745;28;20195;-92
2022/04/04 10:36:45;;;;;;;2.83;2.20;;;14.30;51.20;;;;;;5031760;28;20265;-91
2022/04/04 10:39:42;;;;;;;2.42;2.15;;;14.50;52.70;;;;;;5033908;28;20237;-92
2022/04/04 10:45:05;;;;;;;2.40;2.20;;;12.80;48.50;;;;;;5092471;28;20205;-92
2022/04/04 10:47:36;;;;;;;2.55;2.35;;;12.80;52.00;;;;;;5094982;28;20196;-92
2022/04/04 10:50:29;;;;;;;2.60;2.40;;;12.50;53.50;;;;;;5100621;28;20264;-92
2022/04/04 10:56:18;;;;;;;2.55;2.35;;;12.30;52.00;;;;;;5076374;28;20223;-92
2022/04/04 11:02:39;;;;;;;2.65;2.45;;;12.80;51.20;;;;;;5344112;22;20239;-91
2022/04/04 11:10:30;;;;;;;;;;;;;;;;;;;;;
2022/04/04 11:14:12;;;;;;;2.72;2.53;;;13.10;51.50;;;;;;5016115;28;20265;-90
2022/04/04 11:17:45;;;;;;;2.25;2.13;;;11.30;51.60;;;;;;5006926;28;20191;-90
2022/04/04 11:24:10;;;;;;;2.60;2.40;;;10.70;53.90;;;;;;4943334;22;20205;-85
2022/04/04 11:26:40;;;;;;;3.25;2.50;;;11.20;54.70;;;;;;5063422;28;20198;-88
2022/04/04 11:29:15;;;;;;;2.53;2.33;;;11.00;53.60;;;;;;5059366;28;20264;-85
2022/04/04 11:31:50;;;;;;;2.33;2.20;;;11.10;54.70;;;;;;5065888;28;20212;-85
2022/04/04 11:34:21;;;;;;;4.05;2.25;;;10.60;53.90;;;;;;5093858;28;20291;-86
2022/04/04 11:36:50;;;;;;;3.92;2.78;;;10.30;55.40;;;;;;5093294;28;20257;-86
2022/04/04 11:39:20;;;;;;;2.08;1.98;;;10.50;56.90;;;;;;5092978;28;20274;-84
2022/04/04 11:41:52;;;;;;;3.00;2.70;;;10.60;54.80;;;;;;5093554;28;20239;-85
2022/04/04 11:44:24;;;;;;;1.90;1.80;;;10.40;53.80;;;;;;5080730;28;20228;-85
2022/04/04 11:47:04;;;;;;;2.20;2.10;;;10.70;56.30;;;;;;5072886;28;20201;-85
2022/04/04 11:49:37;;;;;;;2.25;2.08;;;11.40;57.50;;;;;;5072637;28;20285;-84
2022/04/04 11:52:07;;;;;;;2.25;2.03;;;11.90;54.90;;;;;;5072412;28;20303;-86
2022/04/04 11:54:43;;;;;;;3.15;2.95;;;12.30;53.70;;;;;;5082088;28;20233;-86
2022/04/04 11:57:14;;;;;;;2.20;2.10;;;12.40;53.60;;;;;;5080256;28;20220;-85
2022/04/04 11:59:45;;;;;;;3.10;2.53;;;11.90;52.10;;;;;;5075383;28;20303;-86
2022/04/04 12:02:14;;;;;;;7.35;2.83;;;11.70;52.70;;;;;;5071924;28;20220;-85
2022/04/04 12:04:49;;;;;;;2.15;2.05;;;12.00;53.80;;;;;;5072712;28;20201;-86
2022/04/04 12:07:20;;;;;;;2.00;1.90;;;12.00;55.40;;;;;;5068675;28;20227;-87
2022/04/04 12:09:55;;;;;;;2.63;2.30;;;11.80;53.10;;;;;;5072637;28;20282;-87
2022/04/04 12:12:29;;;;;;;2.88;2.40;;;11.20;52.40;;;;;;5069910;28;20228;-86
2022/04/04 12:14:59;;;;;;;2.30;2.20;;;11.30;54.00;;;;;;5072882;28;20204;-86
2022/04/04 12:17:27;;;;;;;1.88;1.77;;;11.40;53.60;;;;;;5072427;28;20205;-87
2022/04/04 12:19:58;;;;;;;2.63;2.42;;;11.60;55.60;;;;;;5071237;28;20304;-87
2022/04/04 12:25:47;;;;;;;2.30;2.13;;;12.70;53.90;;;;;;5073610;28;20205;-87
2022/04/04 12:28:25;;;;;;;5.13;2.53;;;13.20;52.30;;;;;;5072292;28;20288;-87
2022/04/04 12:30:54;;;;;;;4.63;2.72;;;13.10;50.70;;;;;;5071809;28;20208;-88
2022/04/04 12:33:33;;;;;;;1.95;1.85;;;13.40;50.90;;;;;;5072268;28;20245;-84
2022/04/04 12:36:02;;;;;;;2.00;1.90;;;13.60;50.80;;;;;;5075993;28;20201;-86
2022/04/04 12:38:32;;;;;;;2.42;2.22;;;13.60;49.90;;;;;;5075548;28;20274;-86
2022/04/04 12:41:17;;;;;;;3.03;2.72;;;13.70;51.20;;;;;;5076025;28;20201;-86
2022/04/04 12:43:48;;;;;;;2.15;2.05;;;13.30;52.20;;;;;;5076326;28;20282;-86
2022/04/04 12:46:27;;;;;;;3.50;2.15;;;13.20;53.10;;;;;;5055861;28;20301;-86
2022/04/04 12:49:11;;;;;;;2.45;2.25;;;13.10;52.40;;;;;;5065117;28;20209;-86
2022/04/04 12:51:41;;;;;;;2.60;2.40;;;13.10;52.70;;;;;;5076039;28;20278;-86
2022/04/04 12:54:09;;;;;;;2.53;2.15;;;13.30;53.40;;;;;;5075937;28;20255;-86
2022/04/04 12:56:50;;;;;;;2.58;2.38;;;13.30;52.90;;;;;;5076080;28;20293;-87
2022/04/04 12:59:20;;;;;;;2.35;2.15;;;13.10;51.80;;;;;;5075905;28;20296;-85
2022/04/04 13:02:02;;;;;;;4.05;2.95;;;12.90;51.00;;;;;;5076167;28;20252;-86
2022/04/04 13:04:32;;;;;;;2.17;2.00;;;12.80;51.40;;;;;;5075574;28;20201;-86
2022/04/04 13:07:01;;;;;;;2.58;2.38;;;12.80;52.90;;;;;;5075975;28;20205;-86
2022/04/04 13:09:31;;;;;;;2.70;2.50;;;12.70;52.20;;;;;;5076103;28;20292;-87
2022/04/04 13:12:02;;;;;;;2.28;2.10;;;12.80;52.40;;;;;;5075352;28;20255;-86
2022/04/04 13:14:47;;;;;;;2.72;2.53;;;12.90;53.30;;;;;;5075989;28;20282;-86
2022/04/04 13:17:16;;;;;;;2.97;2.45;;;12.50;52.70;;;;;;5055674;28;20197;-86
2022/04/04 13:19:44;;;;;;;2.47;2.30;;;12.70;55.00;;;;;;5064720;28;20224;-86
2022/04/04 13:22:13;;;;;;;1.95;1.85;;;12.20;53.20;;;;;;5075926;28;20304;-86
2022/04/04 13:24:41;;;;;;;2.50;2.30;;;12.20;54.60;;;;;;5075547;28;20271;-86
2022/04/04 13:27:11;;;;;;;2.70;2.50;;;12.20;55.50;;;;;;5075459;28;20296;-86
2022/04/04 13:29:39;;;;;;;2.60;2.40;;;12.40;54.30;;;;;;5075703;28;20258;-86
2022/04/04 13:32:08;;;;;;;2.55;2.38;;;12.60;54.90;;;;;;5075588;28;20294;-86
2022/04/04 13:34:36;;;;;;;2.80;2.53;;;12.70;55.00;;;;;;5075332;28;20208;-86
2022/04/04 13:37:05;;;;;;;2.85;2.65;;;12.00;54.10;;;;;;5075547;28;20223;-85
2022/04/04 13:39:33;;;;;;;2.92;2.65;;;11.70;55.10;;;;;;5075631;28;20225;-85
2022/04/04 13:42:08;;;;;;;2.10;2.00;;;11.70;57.00;;;;;;5075492;28;20279;-85
2022/04/04 13:44:38;;;;;;;3.10;2.80;;;11.80;55.80;;;;;;5074262;28;20197;-86
2022/04/04 13:47:06;;;;;;;2.70;2.50;;;11.60;55.40;;;;;;5075303;28;20258;-85
2022/04/04 13:49:35;;;;;;;2.15;2.05;;;11.60;56.40;;;;;;5075102;28;20331;-85
2022/04/04 13:52:06;;;;;;;2.75;2.50;;;11.70;56.50;;;;;;5074818;28;20304;-85
2022/04/04 13:54:34;;;;;;;2.80;2.33;;;11.60;55.50;;;;;;5075294;28;20205;-85
2022/04/04 13:57:03;;;;;;;3.25;2.80;;;11.40;55.80;;;;;;5074980;28;20220;-85